Eppley Airfield
KOMA : rendu visible

Aérodrome :











RETROUVEZ-NOUS SUR...

 
LOGIN :

S'inscrire | Disclaimer

   EN    FR    IT 

 









Légende :    VFR   VFR Marginal   IFR   IFR Intensif   IFR Très Intensif
Visi : 
Plafond : 
>= 8 km
>= 3000ft
5 à 8 km
1000 à 3000 ft
1500m à 5 km
500 à 1000 ft
800 à 1500m
200 à 500 ft
< 800m
< 200 ft
Symboles :   Orages  Brouillard  Fortes neiges  Fortes précipitations  Vent > 20 kt






- Altitude de l'aérodrome : 984 ft
- Code IATA : OMA


KOMA - Eppley

DERNIER METAR :
  • 121852Z 17017KT 10SM SCT250 M06/M13 A3040 RMK AO2 SLP311 T10561133

METARs EXPIRÉS :
  • 121752Z 19016KT 10SM FEW250 M07/M14 A3045 RMK AO2 SLP331 4/001 T10671139 11067 21144 58042
  • 121652Z 18013KT 10SM FEW250 M08/M14 A3052 RMK AO2 SLP353 T10781144
  • 121552Z 18011KT 10SM CLR M09/M16 A3055 RMK AO2 SLP366 T10941156

TAF KOMA
Valide du 12 à 18h jusqu'au 13 à 18h UTC


121752Z 1218/1318 17018G26KT P6SM FEW250
FM130200 17015KT P6SM SCT250 WS020/22040KT
FM130900 18010KT P6SM BKN250
FM131700 22010KT P6SM VCSH SCT025 BKN050 OVC100



MET'MAP, la Météo Aéronautique d'un coup d'oeil ! - Copyright ORBIFLY Décembre 2007 - Disclaimer

ORBIFLY MET'MAP TEAM :

Programmation & Développement : Alexandra Zaïnal
Conception & Développement : Baudouin d'Aumeries
Co-Programmation & Développement : Marc-Olivier Méhu
Soutien technique & logistique : Manuel Goepfert

Contact : metmap@orbifly.com




SOURCES & CREDITS :

   NOAA       Earth
Advisory